Time;durP1;ratioP1;P1;durP2;ratioP2;P2;SDS_P1;SDS_P2;PMS_P1;PMS_P2;Temp;Humidity;BMP_temperature;BMP_pressure;BME280_temperature;BME280_humidity;BME280_pressure;Samples;Min_cycle;Max_cycle;Signal;HPM_P1;HPM_P2
2022/05/29 00:02:07;;;;;;;4.72;1.73;;;11.10;99.90;;;;;;4888226;29;20068;-57
2022/05/29 00:04:36;;;;;;;2.28;1.27;;;11.10;99.90;;;;;;4895240;29;20049;-58
2022/05/29 00:07:05;;;;;;;5.60;0.93;;;11.00;99.90;;;;;;4893322;29;20652;-56
2022/05/29 00:09:39;;;;;;;2.40;1.00;;;11.00;99.90;;;;;;4895132;29;20049;-57
2022/05/29 00:12:09;;;;;;;1.40;1.00;;;11.00;99.90;;;;;;4894212;29;20057;-57
2022/05/29 00:14:38;;;;;;;8.48;1.58;;;11.00;99.90;;;;;;4894188;29;20059;-57
2022/05/29 00:17:06;;;;;;;2.30;1.13;;;10.90;99.90;;;;;;4876954;29;20045;-57
2022/05/29 00:19:35;;;;;;;3.22;1.20;;;11.00;99.90;;;;;;4890409;29;20299;-57
2022/05/29 00:22:03;;;;;;;6.72;1.27;;;10.90;99.90;;;;;;4892432;29;20063;-56
2022/05/29 00:24:32;;;;;;;5.38;2.10;;;11.00;99.90;;;;;;4893510;29;20053;-56
2022/05/29 00:26:59;;;;;;;2.67;1.30;;;11.00;99.90;;;;;;4894102;29;20059;-56
2022/05/29 00:29:27;;;;;;;4.10;1.30;;;11.00;99.90;;;;;;4893821;29;20049;-56
2022/05/29 00:31:55;;;;;;;4.32;1.20;;;11.00;99.90;;;;;;4888880;29;20049;-56
2022/05/29 00:34:23;;;;;;;4.40;1.05;;;11.00;99.90;;;;;;4890048;29;20048;-56
2022/05/29 00:36:50;;;;;;;3.80;1.75;;;11.00;99.90;;;;;;4892475;29;20055;-57
2022/05/29 00:39:19;;;;;;;2.95;0.88;;;11.00;99.90;;;;;;4893627;29;20060;-57
2022/05/29 00:41:47;;;;;;;5.10;1.17;;;11.00;99.90;;;;;;4892349;29;20064;-57
2022/05/29 00:44:19;;;;;;;6.05;1.30;;;10.90;99.90;;;;;;4894802;29;20060;-56
2022/05/29 00:46:58;;;;;;;2.88;1.10;;;10.90;99.90;;;;;;4891703;29;20056;-56
2022/05/29 00:49:32;;;;;;;2.65;1.10;;;10.90;99.90;;;;;;4889425;29;20405;-56
2022/05/29 00:52:27;;;;;;;2.05;1.20;;;10.80;99.90;;;;;;4893119;29;20048;-57
2022/05/29 00:54:58;;;;;;;3.72;1.52;;;10.80;99.90;;;;;;4893521;29;20049;-56
2022/05/29 00:57:55;;;;;;;3.22;1.13;;;10.80;99.90;;;;;;4876700;29;20049;-56
2022/05/29 01:00:27;;;;;;;7.53;1.30;;;10.80;99.90;;;;;;4890971;29;20131;-56
2022/05/29 01:02:57;;;;;;;4.28;1.30;;;10.80;99.90;;;;;;4884481;29;20053;-57
2022/05/29 01:05:28;;;;;;;2.78;1.35;;;10.80;99.90;;;;;;4891893;29;20489;-57
2022/05/29 01:08:08;;;;;;;;;;;10.70;99.90;;;;;;4894531;29;20060;-57
2022/05/29 01:10:47;;;;;;;1.50;1.10;;;10.70;99.90;;;;;;4895994;29;19932;-57
2022/05/29 01:13:36;;;;;;;2.03;1.30;;;10.70;99.90;;;;;;4898326;29;20067;-56
2022/05/29 01:16:15;;;;;;;1.80;1.20;;;10.70;99.90;;;;;;4878224;29;20045;-56
2022/05/29 01:19:02;;;;;;;2.42;1.35;;;10.60;99.90;;;;;;4892123;29;20057;-56
2022/05/29 01:21:48;;;;;;;2.30;1.30;;;10.60;99.90;;;;;;4879811;29;20060;-56
2022/05/29 01:24:19;;;;;;;6.13;1.38;;;10.70;99.90;;;;;;4891735;29;20230;-56
2022/05/29 01:27:12;;;;;;;2.70;1.10;;;10.70;99.90;;;;;;4878829;29;20057;-56
2022/05/29 01:29:48;;;;;;;2.13;1.00;;;10.70;99.90;;;;;;4894912;29;20063;-57
2022/05/29 01:32:37;;;;;;;2.22;1.10;;;10.70;99.90;;;;;;4883139;29;20046;-60
2022/05/29 01:35:12;;;;;;;2.28;1.08;;;10.70;99.90;;;;;;4879883;29;20045;-57
2022/05/29 01:37:50;;;;;;;1.58;0.75;;;10.70;99.90;;;;;;4896792;29;20053;-57
2022/05/29 01:41:12;;;;;;;5.78;0.85;;;10.70;99.90;;;;;;4896768;29;20052;-62
2022/05/29 01:43:48;;;;;;;2.08;0.80;;;10.70;99.90;;;;;;4882812;29;20052;-56
2022/05/29 01:46:30;;;;;;;2.85;1.00;;;10.70;99.90;;;;;;4885252;29;20045;-57
2022/05/29 01:49:32;;;;;;;1.75;0.80;;;10.70;99.90;;;;;;4895445;29;20489;-58
2022/05/29 01:52:17;;;;;;;1.67;1.08;;;10.70;99.90;;;;;;4897079;29;20048;-57
2022/05/29 01:54:54;;;;;;;1.40;0.88;;;10.70;99.90;;;;;;4896125;29;20060;-57
2022/05/29 01:57:30;;;;;;;2.30;0.88;;;10.70;99.90;;;;;;4897092;29;20036;-57
2022/05/29 02:00:13;;;;;;;3.53;1.00;;;10.60;99.90;;;;;;4898299;29;20045;-57
2022/05/29 02:03:08;;;;;;;2.50;0.80;;;10.60;99.90;;;;;;4897026;29;20044;-57
2022/05/29 02:05:55;;;;;;;1.67;0.98;;;10.60;99.90;;;;;;4896567;29;20524;-57
2022/05/29 02:08:54;;;;;;;4.55;1.10;;;10.60;99.90;;;;;;4898070;29;20067;-57
2022/05/29 02:11:25;;;;;;;6.88;1.00;;;10.60;99.90;;;;;;4888811;29;20533;-57
2022/05/29 02:14:07;;;;;;;3.70;1.45;;;10.60;99.90;;;;;;4880018;29;20489;-57
2022/05/29 02:16:53;;;;;;;2.25;0.90;;;10.50;99.90;;;;;;4897917;29;20071;-56
2022/05/29 02:19:33;;;;;;;3.63;1.17;;;10.50;99.90;;;;;;4896359;29;20558;-56
2022/05/29 02:22:07;;;;;;;4.63;0.90;;;10.50;99.90;;;;;;4895912;29;20040;-56
2022/05/29 02:24:40;;;;;;;5.25;1.13;;;10.40;99.90;;;;;;4895547;29;20048;-56
2022/05/29 02:27:22;;;;;;;1.95;1.10;;;10.40;99.90;;;;;;4857363;29;1187298;-56
2022/05/29 02:29:50;;;;;;;1.30;0.60;;;10.40;99.90;;;;;;4898726;29;20060;-57
2022/05/29 02:32:58;;;;;;;2.42;1.08;;;10.40;99.90;;;;;;4896510;29;20053;-56
2022/05/29 02:35:54;;;;;;;1.50;1.40;;;10.30;99.90;;;;;;4896113;29;20052;-56
2022/05/29 02:38:49;;;;;;;4.50;1.40;;;10.40;99.90;;;;;;4894928;29;20064;-56
2022/05/29 02:41:24;;;;;;;6.47;1.25;;;10.30;99.90;;;;;;4897071;29;20296;-56
2022/05/29 02:43:59;;;;;;;2.72;1.13;;;10.30;99.90;;;;;;4898498;29;20049;-56
2022/05/29 02:46:46;;;;;;;2.83;1.10;;;10.30;99.90;;;;;;4897148;29;20072;-56
2022/05/29 02:49:18;;;;;;;3.03;1.20;;;10.40;99.90;;;;;;4898424;29;20052;-57
2022/05/29 02:51:56;;;;;;;4.82;1.25;;;10.40;99.90;;;;;;4897493;29;20059;-57
2022/05/29 02:54:27;;;;;;;3.78;1.08;;;10.30;99.90;;;;;;4897436;29;20441;-57
2022/05/29 02:56:57;;;;;;;1.75;0.80;;;10.40;99.90;;;;;;4898408;29;20512;-57
2022/05/29 02:59:32;;;;;;;6.95;1.30;;;10.30;99.90;;;;;;4897035;29;20072;-57
2022/05/29 03:02:15;;;;;;;2.53;1.02;;;10.30;99.90;;;;;;4897468;29;20068;-57
2022/05/29 03:05:21;;;;;;;12.75;1.50;;;10.30;99.90;;;;;;4895470;29;20596;-57
2022/05/29 03:08:07;;;;;;;1.60;0.93;;;10.40;99.90;;;;;;4897093;29;20415;-57
2022/05/29 03:10:40;;;;;;;2.92;0.95;;;10.40;99.90;;;;;;4898056;29;20052;-57
2022/05/29 03:13:10;;;;;;;5.22;1.08;;;10.30;99.90;;;;;;4894599;29;20047;-57
2022/05/29 03:15:48;;;;;;;3.03;1.00;;;10.30;99.90;;;;;;4897971;29;20048;-56
2022/05/29 03:18:27;;;;;;;2.05;1.23;;;10.30;99.90;;;;;;4897835;29;20049;-57
2022/05/29 03:21:20;;;;;;;3.33;1.20;;;10.30;99.90;;;;;;4897824;29;20504;-56
2022/05/29 03:24:17;;;;;;;4.55;1.23;;;10.30;99.90;;;;;;4895923;29;20049;-57
2022/05/29 03:27:14;;;;;;;4.78;1.17;;;10.30;99.90;;;;;;4885187;29;20055;-57
2022/05/29 03:30:08;;;;;;;3.25;0.80;;;10.20;99.90;;;;;;4845445;29;20061;-57
2022/05/29 03:32:38;;;;;;;3.65;1.23;;;10.20;99.90;;;;;;4896473;29;20067;-57
2022/05/29 03:35:53;;;;;;;2.90;1.10;;;10.20;99.90;;;;;;4896897;29;20056;-57
2022/05/29 03:38:21;;;;;;;5.40;0.70;;;10.20;99.90;;;;;;4855519;29;20053;-57
2022/05/29 03:40:50;;;;;;;5.28;1.00;;;10.20;99.90;;;;;;4893375;29;20064;-57
2022/05/29 03:43:18;;;;;;;3.03;1.00;;;10.20;99.90;;;;;;4896380;29;20042;-57
2022/05/29 03:45:46;;;;;;;4.53;1.33;;;10.10;99.90;;;;;;4895215;29;20059;-56
2022/05/29 03:48:13;;;;;;;3.85;1.00;;;10.10;99.90;;;;;;4897049;29;20059;-56
2022/05/29 03:50:41;;;;;;;5.38;1.27;;;10.10;99.90;;;;;;4894526;29;20052;-58
2022/05/29 03:53:09;;;;;;;2.10;0.85;;;10.10;99.90;;;;;;4896971;29;20390;-57
2022/05/29 03:55:36;;;;;;;2.88;1.10;;;10.10;99.90;;;;;;4894860;29;20080;-57
2022/05/29 03:58:04;;;;;;;6.00;1.10;;;10.00;99.90;;;;;;4896175;29;20052;-57
2022/05/29 04:00:32;;;;;;;3.08;1.10;;;10.00;99.90;;;;;;4895196;29;20053;-57
2022/05/29 04:03:02;;;;;;;6.25;1.25;;;10.00;99.90;;;;;;4895645;29;20060;-57
2022/05/29 04:05:30;;;;;;;2.05;1.00;;;10.00;99.90;;;;;;4896300;29;20430;-57
2022/05/29 04:13:38;;;;;;;4.85;1.13;;;10.00;99.90;;;;;;4894560;29;20393;-57
2022/05/29 04:16:06;;;;;;;3.92;1.13;;;9.90;99.90;;;;;;4896730;29;20048;-57
2022/05/29 04:18:34;;;;;;;3.88;1.10;;;10.00;99.90;;;;;;4895836;29;20059;-57
2022/05/29 04:21:02;;;;;;;6.38;1.88;;;10.00;99.90;;;;;;4895306;29;20060;-58
2022/05/29 04:23:29;;;;;;;4.22;1.30;;;9.90;99.90;;;;;;4894866;29;20052;-57
2022/05/29 04:25:57;;;;;;;2.13;1.20;;;9.90;99.90;;;;;;4895420;29;20057;-57
2022/05/29 04:28:25;;;;;;;5.70;1.08;;;9.90;99.90;;;;;;4895610;29;20049;-56
2022/05/29 04:30:53;;;;;;;3.90;0.90;;;9.80;99.90;;;;;;4894565;29;20055;-56
2022/05/29 04:33:22;;;;;;;2.15;1.08;;;9.80;99.90;;;;;;4896651;29;20060;-56
2022/05/29 04:35:52;;;;;;;1.95;1.05;;;9.80;99.90;;;;;;4893065;29;20067;-58
2022/05/29 04:38:23;;;;;;;3.70;1.17;;;9.80;99.90;;;;;;4894089;29;20048;-56
2022/05/29 04:40:51;;;;;;;3.10;1.38;;;9.80;99.90;;;;;;4896622;29;20534;-57
2022/05/29 04:43:19;;;;;;;3.80;1.25;;;9.90;99.90;;;;;;4895214;29;20051;-57
2022/05/29 04:45:53;;;;;;;2.58;1.00;;;9.90;99.90;;;;;;4895104;29;20036;-56
2022/05/29 04:48:21;;;;;;;6.28;1.10;;;9.90;99.90;;;;;;4882076;29;20053;-57
2022/05/29 04:51:03;;;;;;;7.28;1.60;;;9.90;99.90;;;;;;4874778;29;20562;-57
2022/05/29 04:53:31;;;;;;;4.15;1.35;;;9.90;99.90;;;;;;4858410;29;20199;-57
2022/05/29 04:55:59;;;;;;;7.47;1.27;;;9.90;99.90;;;;;;4879664;29;20075;-56
2022/05/29 04:58:28;;;;;;;1.45;0.85;;;9.90;99.90;;;;;;4891932;29;20076;-57
2022/05/29 05:00:58;;;;;;;2.33;1.50;;;9.90;99.90;;;;;;4893276;29;20076;-56
2022/05/29 05:03:27;;;;;;;6.68;1.10;;;9.90;99.90;;;;;;4879157;29;20103;-57
2022/05/29 05:05:54;;;;;;;6.60;1.20;;;10.00;99.90;;;;;;4872899;29;20057;-57
2022/05/29 05:08:22;;;;;;;4.70;1.02;;;10.00;99.90;;;;;;4883236;29;20048;-56
2022/05/29 05:10:50;;;;;;;5.15;1.08;;;10.00;99.90;;;;;;4888355;29;20425;-56
2022/05/29 05:13:18;;;;;;;6.85;1.38;;;10.00;99.90;;;;;;4892898;29;20052;-56
2022/05/29 05:15:45;;;;;;;2.13;0.80;;;10.10;99.90;;;;;;4893831;29;20071;-56
2022/05/29 05:18:14;;;;;;;3.70;1.02;;;10.10;99.90;;;;;;4884584;29;20056;-56
2022/05/29 05:20:41;;;;;;;3.80;1.10;;;10.10;99.90;;;;;;4890287;29;20048;-55
2022/05/29 05:23:09;;;;;;;2.75;0.90;;;10.10;99.90;;;;;;4894335;29;20049;-56
2022/05/29 05:25:38;;;;;;;3.78;0.80;;;10.10;99.90;;;;;;4887400;29;20425;-57
2022/05/29 05:28:06;;;;;;;1.38;1.15;;;10.10;99.90;;;;;;4879251;29;20053;-57
2022/05/29 05:30:34;;;;;;;4.22;1.00;;;10.10;99.90;;;;;;4889896;29;20060;-57
2022/05/29 05:33:01;;;;;;;2.83;0.73;;;10.10;99.90;;;;;;4893186;29;20064;-56
2022/05/29 05:35:29;;;;;;;14.15;1.65;;;10.20;99.90;;;;;;4894393;29;20082;-57
2022/05/29 05:37:57;;;;;;;4.28;1.00;;;10.20;99.90;;;;;;4894447;29;20041;-57
2022/05/29 05:40:24;;;;;;;2.47;0.90;;;10.20;99.90;;;;;;4893397;29;20060;-58
2022/05/29 05:42:52;;;;;;;4.10;1.13;;;10.20;99.90;;;;;;4892088;29;20052;-57
2022/05/29 05:45:19;;;;;;;8.57;1.10;;;10.20;99.90;;;;;;4892827;29;20107;-57
2022/05/29 05:47:47;;;;;;;4.28;1.10;;;10.20;99.90;;;;;;4893503;29;20056;-57
2022/05/29 05:50:15;;;;;;;3.75;0.90;;;10.30;99.90;;;;;;4893644;29;20491;-57
2022/05/29 05:52:43;;;;;;;3.75;1.00;;;10.30;99.90;;;;;;4891411;29;20057;-57
2022/05/29 05:55:12;;;;;;;2.78;0.85;;;10.20;99.90;;;;;;4894333;29;20044;-57
2022/05/29 05:57:40;;;;;;;11.20;1.55;;;10.20;99.90;;;;;;4896537;29;20069;-57
2022/05/29 06:00:14;;;;;;;2.50;1.00;;;10.20;99.90;;;;;;4880998;29;20654;-58
2022/05/29 06:02:47;;;;;;;3.05;1.05;;;10.20;99.90;;;;;;4911620;29;20045;-56
2022/05/29 06:05:16;;;;;;;5.22;1.30;;;10.20;99.90;;;;;;4896392;29;20060;-56
2022/05/29 06:07:43;;;;;;;5.22;1.10;;;10.20;99.90;;;;;;4897240;29;20052;-55
2022/05/29 06:10:12;;;;;;;4.05;0.85;;;10.20;99.90;;;;;;4896375;29;20052;-57
2022/05/29 06:12:40;;;;;;;3.85;1.23;;;10.10;99.90;;;;;;4884603;29;20074;-57
2022/05/29 06:15:09;;;;;;;2.72;0.98;;;10.10;99.90;;;;;;4897430;29;20500;-57
2022/05/29 06:17:36;;;;;;;4.10;1.20;;;10.00;99.90;;;;;;4897463;29;20456;-57
2022/05/29 06:20:06;;;;;;;1.77;1.08;;;10.00;99.90;;;;;;4896685;29;20639;-56
2022/05/29 06:22:38;;;;;;;5.38;1.50;;;10.00;99.90;;;;;;4895990;29;20052;-56
2022/05/29 06:25:07;;;;;;;4.28;1.20;;;9.90;99.90;;;;;;4895664;29;20070;-57
2022/05/29 06:27:36;;;;;;;3.25;1.55;;;9.90;99.90;;;;;;4882849;29;20504;-57
2022/05/29 06:30:07;;;;;;;9.02;1.25;;;9.90;99.90;;;;;;4875526;29;20059;-57
2022/05/29 06:32:36;;;;;;;2.13;1.25;;;9.90;99.90;;;;;;4895698;29;20555;-57
2022/05/29 06:35:06;;;;;;;6.00;1.58;;;9.90;99.90;;;;;;4894737;29;20048;-57
2022/05/29 06:37:36;;;;;;;3.63;1.80;;;9.90;99.90;;;;;;4893955;29;20206;-57
2022/05/29 06:40:05;;;;;;;2.70;1.23;;;9.90;99.90;;;;;;4891298;29;20225;-57
2022/05/29 06:42:33;;;;;;;5.65;1.52;;;10.00;99.90;;;;;;4883150;29;20048;-57
2022/05/29 06:45:02;;;;;;;3.88;0.90;;;10.00;99.90;;;;;;4894771;29;20052;-57
2022/05/29 06:47:30;;;;;;;4.78;1.30;;;10.10;99.90;;;;;;4893062;29;20052;-57
2022/05/29 06:49:59;;;;;;;2.15;1.15;;;10.20;99.90;;;;;;4890998;29;20492;-57
2022/05/29 06:52:31;;;;;;;2.95;1.30;;;10.20;99.90;;;;;;4895117;29;20705;-56
2022/05/29 06:55:00;;;;;;;4.03;1.30;;;10.20;99.90;;;;;;4895827;29;20059;-57
2022/05/29 06:57:37;;;;;;;4.13;1.40;;;10.30;99.90;;;;;;4884949;29;20525;-57
2022/05/29 07:08:32;;;;;;;5.47;2.50;;;10.60;99.90;;;;;;4896510;29;20075;-57
2022/05/29 07:11:05;;;;;;;7.93;1.40;;;10.60;99.90;;;;;;4893548;29;20051;-56
2022/05/29 07:13:35;;;;;;;5.18;1.50;;;10.70;99.90;;;;;;4895526;29;20059;-57
2022/05/29 07:16:04;;;;;;;4.78;1.83;;;10.80;99.90;;;;;;4895098;29;20052;-56
2022/05/29 07:18:32;;;;;;;5.05;1.27;;;10.80;99.90;;;;;;4895083;29;20059;-57
2022/05/29 07:21:02;;;;;;;7.78;2.13;;;10.80;99.90;;;;;;4894956;29;20064;-56
2022/05/29 07:23:30;;;;;;;3.08;1.45;;;10.80;99.90;;;;;;4896130;29;20049;-57
2022/05/29 07:25:58;;;;;;;3.83;1.40;;;10.90;99.90;;;;;;4892009;29;20076;-55
2022/05/29 07:28:26;;;;;;;4.40;1.10;;;10.90;99.90;;;;;;4887247;29;20051;-57
2022/05/29 07:30:55;;;;;;;2.58;1.10;;;10.90;99.90;;;;;;4895840;29;20052;-56
2022/05/29 07:33:27;;;;;;;2.03;1.27;;;11.00;99.90;;;;;;4895712;29;20048;-57
2022/05/29 07:35:55;;;;;;;4.32;1.13;;;11.00;99.90;;;;;;4894205;29;20047;-56
2022/05/29 07:38:23;;;;;;;7.47;1.58;;;11.00;99.90;;;;;;4895584;29;20044;-57
2022/05/29 07:40:52;;;;;;;7.13;1.30;;;11.10;99.90;;;;;;4878637;29;20059;-56
2022/05/29 07:43:21;;;;;;;2.72;1.52;;;11.20;99.90;;;;;;4888448;29;20477;-56
2022/05/29 07:45:52;;;;;;;2.35;1.00;;;11.30;99.90;;;;;;4890477;29;20053;-56
2022/05/29 07:48:25;;;;;;;6.38;1.23;;;11.40;99.90;;;;;;4895705;29;20064;-57
2022/05/29 07:50:53;;;;;;;3.85;1.20;;;11.50;99.90;;;;;;4894452;29;20053;-56
2022/05/29 07:53:22;;;;;;;6.72;1.23;;;11.60;99.90;;;;;;4895381;29;20044;-57
2022/05/29 07:55:49;;;;;;;6.95;1.23;;;11.60;99.90;;;;;;4893241;29;20057;-57
2022/05/29 07:58:18;;;;;;;1.15;0.60;;;11.60;99.90;;;;;;4890699;29;20059;-56
2022/05/29 08:00:45;;;;;;;2.53;0.77;;;11.70;99.90;;;;;;4878373;29;20638;-57
2022/05/29 08:03:13;;;;;;;5.78;0.90;;;11.70;99.90;;;;;;4893410;29;20056;-57
2022/05/29 08:05:41;;;;;;;3.10;1.40;;;11.70;99.90;;;;;;4893407;29;20530;-57
2022/05/29 08:08:10;;;;;;;3.50;1.33;;;11.80;99.90;;;;;;4894446;29;20476;-56
2022/05/29 08:10:40;;;;;;;5.88;1.17;;;11.80;99.90;;;;;;4894305;29;20060;-56
2022/05/29 08:13:11;;;;;;;6.15;1.40;;;11.90;99.90;;;;;;4888205;29;20127;-56
2022/05/29 08:15:39;;;;;;;2.10;1.00;;;11.90;99.90;;;;;;4893122;29;20067;-57
2022/05/29 08:18:07;;;;;;;4.50;1.85;;;12.00;99.90;;;;;;4892996;29;20425;-57
2022/05/29 08:20:36;;;;;;;4.05;1.70;;;12.00;99.90;;;;;;4892924;29;20048;-56
2022/05/29 08:23:05;;;;;;;8.67;1.40;;;12.10;99.90;;;;;;4893003;29;20075;-57
2022/05/29 08:31:06;;;;;;;2.22;1.60;;;12.20;99.90;;;;;;4893401;29;20119;-56
2022/05/29 08:33:37;;;;;;;4.13;1.00;;;12.30;99.90;;;;;;4891724;29;20052;-56
2022/05/29 08:36:04;;;;;;;;;;;12.30;99.90;;;;;;4893325;29;20390;-56
2022/05/29 08:38:34;;;;;;;6.13;0.93;;;12.20;99.90;;;;;;4890297;29;19923;-57
2022/05/29 08:41:10;;;;;;;5.65;1.10;;;12.20;99.90;;;;;;4892716;29;20053;-56
2022/05/29 08:43:55;;;;;;;8.75;1.38;;;12.10;99.90;;;;;;4890747;29;20044;-57
2022/05/29 08:46:40;;;;;;;2.58;1.20;;;12.00;99.90;;;;;;4894870;29;20052;-57
2022/05/29 08:49:11;;;;;;;5.28;1.00;;;11.90;99.90;;;;;;4892653;29;20055;-57
2022/05/29 08:51:54;;;;;;;5.47;1.08;;;11.80;99.90;;;;;;4894828;29;20437;-56
2022/05/29 08:55:14;;;;;;;3.47;1.20;;;11.70;99.90;;;;;;4892780;29;20531;-57
2022/05/29 08:58:08;;;;;;;4.05;1.52;;;11.60;99.90;;;;;;4854533;29;20070;-57
2022/05/29 09:00:50;;;;;;;3.58;1.10;;;11.50;99.90;;;;;;4874426;29;20049;-57
2022/05/29 09:03:39;;;;;;;4.85;1.52;;;11.50;99.90;;;;;;4894699;29;20493;-60
2022/05/29 09:06:18;;;;;;;2.17;1.30;;;11.50;99.90;;;;;;4891744;29;20037;-57
2022/05/29 09:08:55;;;;;;;8.85;1.25;;;11.60;99.90;;;;;;4876327;29;20054;-56
2022/05/29 09:11:31;;;;;;;5.05;1.20;;;11.60;99.90;;;;;;4893424;29;20437;-57
2022/05/29 09:14:24;;;;;;;3.35;1.17;;;11.60;99.90;;;;;;4890682;29;20049;-57
2022/05/29 09:17:06;;;;;;;5.20;1.20;;;11.70;99.90;;;;;;4876953;29;20404;-57
2022/05/29 09:19:54;;;;;;;4.53;1.23;;;11.80;99.90;;;;;;4890826;29;20044;-57
2022/05/29 09:22:26;;;;;;;3.45;1.30;;;11.90;99.90;;;;;;4894656;29;20081;-56
2022/05/29 09:25:08;;;;;;;2.28;0.98;;;11.90;99.90;;;;;;4893407;29;20053;-57
2022/05/29 09:27:42;;;;;;;2.80;0.90;;;11.90;99.90;;;;;;4889640;29;20052;-57
2022/05/29 09:30:10;;;;;;;1.98;1.25;;;12.00;99.90;;;;;;4896144;29;20044;-56
2022/05/29 09:32:48;;;;;;;3.40;0.98;;;11.90;99.90;;;;;;4880373;29;20055;-56
2022/05/29 09:35:32;;;;;;;6.20;0.90;;;12.00;99.90;;;;;;4896898;29;20045;-57
2022/05/29 09:38:10;;;;;;;2.55;1.08;;;12.00;99.90;;;;;;4898173;29;20048;-56
2022/05/29 09:41:14;;;;;;;2.00;0.80;;;12.00;99.90;;;;;;4895909;29;20048;-56
2022/05/29 09:44:05;;;;;;;0.82;0.60;;;11.90;99.90;;;;;;4862346;29;20049;-56
2022/05/29 09:46:36;;;;;;;1.85;0.70;;;11.80;99.90;;;;;;4879275;29;20057;-56
2022/05/29 09:52:08;;;;;;;2.05;0.73;;;11.70;99.90;;;;;;4887001;29;20520;-56
2022/05/29 09:54:49;;;;;;;3.63;0.82;;;11.60;99.90;;;;;;4896804;29;20063;-56
2022/05/29 09:57:27;;;;;;;1.35;1.15;;;11.60;99.90;;;;;;4896825;29;20124;-57
2022/05/29 10:00:08;;;;;;;0.35;0.30;;;11.50;99.90;;;;;;4888126;29;20064;-56
2022/05/29 10:02:38;;;;;;;;;;;11.50;99.90;;;;;;4897095;29;20064;-55
2022/05/29 10:05:07;;;;;;;;;;;11.40;99.90;;;;;;4895752;29;19927;-56
2022/05/29 10:07:44;;;;;;;2.17;0.50;;;11.30;99.90;;;;;;4897460;29;19930;-56
2022/05/29 10:10:27;;;;;;;3.10;1.05;;;11.30;99.90;;;;;;4896553;29;20057;-56
2022/05/29 10:12:58;;;;;;;2.72;1.50;;;11.30;99.90;;;;;;4890241;29;20041;-55
2022/05/29 10:15:25;;;;;;;1.98;0.90;;;11.30;99.90;;;;;;4879094;29;20404;-56
2022/05/29 10:17:56;;;;;;;2.40;1.40;;;11.20;99.90;;;;;;4894136;29;20062;-56
2022/05/29 10:20:25;;;;;;;;;;;11.10;99.90;;;;;;4896865;29;20055;-55
2022/05/29 10:22:55;;;;;;;2.83;1.98;;;11.10;99.90;;;;;;4891643;29;20303;-57
2022/05/29 10:25:27;;;;;;;0.90;0.90;;;11.00;99.90;;;;;;4897026;29;20071;-56
2022/05/29 10:27:59;;;;;;;1.48;0.40;;;11.00;99.90;;;;;;4891619;29;20041;-57
2022/05/29 10:30:43;;;;;;;1.00;0.57;;;11.00;99.90;;;;;;4891747;29;20049;-57
2022/05/29 10:33:18;;;;;;;3.22;0.60;;;11.00;99.90;;;;;;4886660;29;20114;-57
2022/05/29 10:35:47;;;;;;;3.20;0.70;;;11.10;99.90;;;;;;4894289;29;20052;-57
2022/05/29 10:38:25;;;;;;;0.68;0.47;;;11.20;99.90;;;;;;4890677;29;20060;-57
2022/05/29 10:40:58;;;;;;;1.05;0.90;;;11.30;99.90;;;;;;4884462;29;20048;-58
2022/05/29 10:43:37;;;;;;;2.17;0.50;;;11.50;99.90;;;;;;4877225;29;20469;-58
2022/05/29 10:46:15;;;;;;;1.90;0.30;;;11.60;99.90;;;;;;4887517;29;20080;-58
2022/05/29 10:49:23;;;;;;;2.20;0.22;;;11.80;99.90;;;;;;4883710;29;20146;-57
2022/05/29 10:52:09;;;;;;;1.55;1.00;;;12.00;99.90;;;;;;4888341;29;20060;-56
2022/05/29 10:54:58;;;;;;;1.70;0.90;;;12.20;99.90;;;;;;4893843;29;20126;-57
2022/05/29 10:57:25;;;;;;;0.68;0.40;;;12.30;99.90;;;;;;4891482;29;20044;-57
2022/05/29 11:00:01;;;;;;;2.70;0.68;;;12.40;99.90;;;;;;4894393;29;20052;-58
2022/05/29 11:05:49;;;;;;;3.38;0.93;;;12.50;99.90;;;;;;4895094;29;20493;-59
2022/05/29 11:08:35;;;;;;;1.67;0.60;;;12.60;99.90;;;;;;4891622;29;20052;-57
2022/05/29 11:11:18;;;;;;;1.75;0.65;;;12.60;99.90;;;;;;4893635;29;20048;-57
2022/05/29 11:14:05;;;;;;;4.82;1.38;;;12.70;99.90;;;;;;4881909;29;20044;-58
2022/05/29 11:16:33;;;;;;;1.77;0.50;;;12.80;99.90;;;;;;4891431;29;20045;-57
2022/05/29 11:19:26;;;;;;;1.67;0.47;;;12.80;99.90;;;;;;4890083;29;20053;-57
2022/05/29 11:22:29;;;;;;;1.70;0.65;;;12.80;99.90;;;;;;4878552;29;20049;-57
2022/05/29 11:25:06;;;;;;;1.92;0.85;;;12.90;99.90;;;;;;4870607;29;20067;-58
2022/05/29 11:27:45;;;;;;;1.55;0.68;;;12.90;99.90;;;;;;4882122;29;20626;-57
2022/05/29 11:30:51;;;;;;;2.72;0.40;;;12.90;99.90;;;;;;4887863;29;20048;-57
2022/05/29 11:33:25;;;;;;;1.15;0.70;;;12.90;99.90;;;;;;4884095;29;20045;-57
2022/05/29 11:36:04;;;;;;;3.55;0.60;;;12.90;99.90;;;;;;4886215;29;20052;-57
2022/05/29 11:38:41;;;;;;;0.80;0.73;;;12.90;99.90;;;;;;4891408;29;20390;-57
2022/05/29 11:41:15;;;;;;;2.55;0.70;;;13.00;99.90;;;;;;4888146;29;20052;-57
2022/05/29 11:44:21;;;;;;;1.42;0.60;;;13.00;99.90;;;;;;4885924;29;20493;-58
2022/05/29 11:52:47;;;;;;;2.15;0.68;;;13.30;99.90;;;;;;4887269;29;20544;-56
2022/05/29 11:55:18;;;;;;;1.33;0.93;;;13.40;99.90;;;;;;4873890;29;20049;-56
2022/05/29 11:58:18;;;;;;;2.88;0.95;;;13.40;99.90;;;;;;4885824;29;20516;-57
2022/05/29 12:00:46;;;;;;;1.90;0.75;;;13.40;99.90;;;;;;4892352;29;20056;-57
2022/05/29 12:03:49;;;;;;;2.15;0.52;;;13.50;99.90;;;;;;4889904;29;20040;-56
2022/05/29 12:06:51;;;;;;;0.98;0.70;;;13.60;99.90;;;;;;4888993;29;20059;-56
2022/05/29 12:09:36;;;;;;;2.65;0.80;;;13.70;99.90;;;;;;4887302;29;20045;-56
2022/05/29 12:12:23;;;;;;;3.97;1.35;;;13.70;99.90;;;;;;4891997;29;20052;-57
2022/05/29 12:15:28;;;;;;;2.05;1.00;;;13.70;99.90;;;;;;4884724;29;20425;-57
2022/05/29 12:18:09;;;;;;;2.10;1.00;;;13.70;99.90;;;;;;4829319;29;20061;-57
2022/05/29 12:20:43;;;;;;;2.42;0.80;;;13.80;99.90;;;;;;4878867;29;20523;-57
2022/05/29 12:23:26;;;;;;;3.90;0.82;;;13.90;99.90;;;;;;4890314;29;20392;-57
2022/05/29 12:26:06;;;;;;;1.48;0.80;;;14.00;99.90;;;;;;4872867;29;20061;-57
2022/05/29 12:28:43;;;;;;;1.17;0.80;;;14.10;99.90;;;;;;4883809;29;20045;-57
2022/05/29 12:31:37;;;;;;;2.35;0.60;;;14.30;99.90;;;;;;4887425;29;20060;-58
2022/05/29 12:34:08;;;;;;;2.03;0.95;;;14.50;99.90;;;;;;4882779;29;20068;-58
2022/05/29 12:37:13;;;;;;;1.95;0.90;;;14.70;99.90;;;;;;4889731;29;20041;-57
2022/05/29 12:39:53;;;;;;;2.28;0.95;;;15.00;99.90;;;;;;4888611;29;20057;-57
2022/05/29 12:42:41;;;;;;;3.28;0.98;;;15.40;99.90;;;;;;4888849;29;20064;-57
2022/05/29 12:45:37;;;;;;;1.13;0.88;;;16.00;99.90;;;;;;4885750;29;20432;-58
2022/05/29 12:48:23;;;;;;;2.20;1.10;;;16.80;99.90;;;;;;4880804;29;20508;-58
2022/05/29 12:51:10;;;;;;;2.38;0.98;;;17.60;99.90;;;;;;4891309;29;20493;-58
2022/05/29 12:53:40;;;;;;;1.52;0.95;;;18.20;99.90;;;;;;4883110;29;20048;-58
2022/05/29 12:56:21;;;;;;;3.80;1.80;;;18.50;99.50;;;;;;4890132;29;20529;-58
2022/05/29 12:59:20;;;;;;;2.60;1.00;;;18.90;98.00;;;;;;4890436;29;20060;-59
2022/05/29 13:02:08;;;;;;;2.58;1.15;;;19.00;94.50;;;;;;4864195;29;20064;-58
2022/05/29 13:05:00;;;;;;;3.30;1.30;;;19.00;94.10;;;;;;4894357;29;20041;-58
2022/05/29 13:07:47;;;;;;;2.03;0.90;;;18.70;93.80;;;;;;4885434;29;20564;-58
2022/05/29 13:10:37;;;;;;;1.08;0.60;;;18.40;93.20;;;;;;4886784;29;20048;-59
2022/05/29 13:13:20;;;;;;;5.07;0.82;;;18.40;94.90;;;;;;4892490;29;20464;-59
2022/05/29 13:15:49;;;;;;;2.15;1.10;;;18.60;92.10;;;;;;4895445;29;20064;-59
2022/05/29 13:21:20;;;;;;;2.05;0.70;;;18.80;90.20;;;;;;4877574;29;20064;-59
2022/05/29 13:23:54;;;;;;;1.30;0.57;;;18.90;91.20;;;;;;4893768;29;20059;-59
2022/05/29 13:26:29;;;;;;;2.00;0.50;;;19.00;91.10;;;;;;4894710;29;20053;-58
2022/05/29 13:28:59;;;;;;;1.02;0.40;;;19.20;89.70;;;;;;4892898;29;20068;-59
2022/05/29 13:31:33;;;;;;;2.00;0.60;;;19.30;84.70;;;;;;4894660;29;20053;-59
2022/05/29 13:34:24;;;;;;;2.60;0.52;;;19.20;83.50;;;;;;4890840;29;20055;-59
2022/05/29 13:36:53;;;;;;;3.00;0.30;;;19.00;84.30;;;;;;4890757;29;20045;-58
2022/05/29 13:39:24;;;;;;;1.83;0.50;;;18.90;84.10;;;;;;4889649;29;20072;-58
2022/05/29 13:42:09;;;;;;;0.47;0.32;;;18.70;83.30;;;;;;4891707;29;20048;-59
2022/05/29 13:44:39;;;;;;;2.28;0.80;;;18.60;84.30;;;;;;4893809;29;20056;-59
2022/05/29 13:47:19;;;;;;;;;;;18.80;88.50;;;;;;4875281;29;20053;-58
2022/05/29 13:49:58;;;;;;;1.55;0.60;;;19.20;89.00;;;;;;4874833;29;19924;-58
2022/05/29 13:52:35;;;;;;;2.05;0.57;;;19.40;83.70;;;;;;4892186;29;20044;-59
2022/05/29 13:55:09;;;;;;;1.08;0.52;;;19.40;82.30;;;;;;4893522;29;20059;-59
2022/05/29 14:04:02;;;;;;;1.05;0.88;;;19.70;81.50;;;;;;4852999;29;20068;-59
2022/05/29 14:07:08;;;;;;;1.98;0.65;;;19.60;79.60;;;;;;4890208;29;20068;-59
2022/05/29 14:09:44;;;;;;;1.60;0.60;;;19.50;83.10;;;;;;4894315;29;20618;-59
2022/05/29 14:12:12;;;;;;;2.70;0.93;;;19.90;83.40;;;;;;4892966;29;20056;-59
2022/05/29 14:14:49;;;;;;;1.42;0.80;;;20.50;80.00;;;;;;4893705;29;20059;-59
2022/05/29 14:17:35;;;;;;;1.15;0.75;;;21.00;77.70;;;;;;4894048;29;20048;-59